Wetterdaten: Woche 24.10.16 - 30.10.16 (KW43)
Datum Zeit Temperatur Luftfeuchte Luftdruck Niederschlag Windrichtung Sonnenschein Solar Wind
24.10.2016 00:00 8,4 C 99 % 1012,3 hPa 0,2 l/m N-NW 0,00 h 0 W/m 2,9 km/h (1 Bft)
24.10.2016 01:00 8,6 C 99 % 1012,6 hPa 0,0 l/m N 0,00 h 0 W/m 0,3 km/h (0 Bft)
24.10.2016 02:00 8,6 C 99 % 1012,9 hPa 0,2 l/m N 0,00 h 0 W/m 0,1 km/h (0 Bft)
24.10.2016 03:00 8,5 C 99 % 1013,0 hPa 0,0 l/m W 0,00 h 0 W/m 4,4 km/h (1 Bft)
24.10.2016 04:00 8,4 C 99 % 1013,1 hPa 0,0 l/m W 0,00 h 0 W/m 3,1 km/h (1 Bft)
24.10.2016 05:00 8,0 C 99 % 1013,1 hPa 0,0 l/m N 0,00 h 0 W/m 0,0 km/h (0 Bft)
24.10.2016 06:00 7,6 C 99 % 1013,0 hPa 0,0 l/m N 0,00 h 0 W/m 0,0 km/h (0 Bft)
24.10.2016 07:00 7,3 C 99 % 1012,9 hPa 0,0 l/m N 0,00 h 0 W/m 0,4 km/h (0 Bft)
24.10.2016 08:00 6,9 C 99 % 1013,0 hPa 0,0 l/m N 0,00 h 32 W/m 0,0 km/h (0 Bft)
24.10.2016 09:00 7,8 C 99 % 1013,4 hPa 0,0 l/m N 0,75 h 184 W/m 0,0 km/h (0 Bft)
24.10.2016 10:00 10,5 C 98 % 1013,8 hPa 0,0 l/m W 0,50 h 179 W/m 2,8 km/h (1 Bft)
24.10.2016 11:00 11,4 C 96 % 1013,7 hPa 0,0 l/m W 0,08 h 214 W/m 3,3 km/h (1 Bft)
24.10.2016 12:00 13,1 C 92 % 1013,3 hPa 0,0 l/m W 0,92 h 376 W/m 4,1 km/h (1 Bft)
24.10.2016 13:00 14,6 C 88 % 1012,5 hPa 0,0 l/m N 0,83 h 317 W/m 0,9 km/h (0 Bft)
24.10.2016 14:00 16,2 C 85 % 1012,0 hPa 0,0 l/m N 0,33 h 241 W/m 0,0 km/h (0 Bft)
24.10.2016 15:00 16,7 C 85 % 1011,7 hPa 0,0 l/m W 0,83 h 238 W/m 2,8 km/h (1 Bft)
24.10.2016 16:00 16,5 C 88 % 1012,1 hPa 0,0 l/m N-NW 0,83 h 178 W/m 9,7 km/h (2 Bft)
24.10.2016 17:00 14,9 C 92 % 1012,4 hPa 0,0 l/m N-NW 0,08 h 44 W/m 2,4 km/h (1 Bft)
24.10.2016 18:00 12,6 C 96 % 1012,8 hPa 0,0 l/m N 0,08 h 8 W/m 0,1 km/h (0 Bft)
24.10.2016 19:00 11,5 C 98 % 1013,2 hPa 0,0 l/m N 0,00 h 0 W/m 0,0 km/h (0 Bft)
24.10.2016 20:00 11,1 C 98 % 1013,3 hPa 0,0 l/m N 0,00 h 0 W/m 0,1 km/h (0 Bft)
24.10.2016 21:00 10,8 C 99 % 1013,4 hPa 0,0 l/m N 0,00 h 0 W/m 0,0 km/h (0 Bft)
24.10.2016 22:00 10,2 C 99 % 1013,7 hPa 0,0 l/m N 0,00 h 0 W/m 0,0 km/h (0 Bft)
24.10.2016 23:00 9,5 C 99 % 1014,1 hPa 0,0 l/m N 0,00 h 0 W/m 0,0 km/h (0 Bft)
25.10.2016 00:00 9,2 C 99 % 1014,5 hPa 0,0 l/m N 0,00 h 0 W/m 0,0 km/h (0 Bft)
25.10.2016 01:00 8,7 C 99 % 1014,8 hPa 0,0 l/m N 0,00 h 0 W/m 0,1 km/h (0 Bft)
25.10.2016 02:00 9,2 C 99 % 1016,2 hPa 0,2 l/m N-NW 0,00 h 0 W/m 1,2 km/h (1 Bft)
25.10.2016 03:00 9,6 C 99 % 1017,5 hPa 1,2 l/m N-NW 0,00 h 0 W/m 1,9 km/h (1 Bft)
25.10.2016 04:00 9,9 C 100 % 1017,4 hPa 0,8 l/m S-SW 0,00 h 0 W/m 12,0 km/h (2 Bft)
25.10.2016 05:00 10,4 C 100 % 1017,6 hPa 0,8 l/m SW 0,00 h 0 W/m 11,6 km/h (2 Bft)
25.10.2016 06:00 10,9 C 100 % 1018,7 hPa 4,8 l/m W-SW 0,00 h 0 W/m 14,0 km/h (3 Bft)
25.10.2016 07:00 10,9 C 100 % 1018,9 hPa 0,8 l/m SW 0,00 h 0 W/m 20,1 km/h (4 Bft)
25.10.2016 08:00 11,2 C 100 % 1019,6 hPa 0,0 l/m W-SW 0,00 h 14 W/m 18,6 km/h (3 Bft)
25.10.2016 09:00 11,8 C 100 % 1020,3 hPa 0,0 l/m W-SW 0,00 h 72 W/m 12,2 km/h (2 Bft)
25.10.2016 10:00 12,6 C 100 % 1020,4 hPa 0,0 l/m SW 0,00 h 152 W/m 4,6 km/h (1 Bft)
25.10.2016 11:00 13,2 C 98 % 1020,4 hPa 0,0 l/m S-SW 0,00 h 145 W/m 5,5 km/h (1 Bft)
25.10.2016 12:00 13,5 C 97 % 1020,1 hPa 0,0 l/m S-SW 0,00 h 116 W/m 3,3 km/h (1 Bft)
25.10.2016 13:00 13,9 C 96 % 1019,8 hPa 0,0 l/m S-SW 0,00 h 195 W/m 5,9 km/h (2 Bft)
25.10.2016 14:00 13,9 C 94 % 1019,5 hPa 0,2 l/m SW 0,00 h 93 W/m 4,1 km/h (1 Bft)
25.10.2016 15:00 13,3 C 94 % 1019,9 hPa 0,0 l/m N 0,00 h 49 W/m 7,4 km/h (2 Bft)
25.10.2016 16:00 12,8 C 95 % 1020,4 hPa 0,0 l/m N-NO 0,00 h 22 W/m 2,1 km/h (1 Bft)
25.10.2016 17:00 12,3 C 97 % 1020,8 hPa 0,0 l/m N 0,00 h 10 W/m 1,6 km/h (1 Bft)
25.10.2016 18:00 12,1 C 97 % 1021,1 hPa 0,2 l/m N 0,00 h 0 W/m 1,1 km/h (0 Bft)
25.10.2016 19:00 11,9 C 97 % 1021,5 hPa 0,4 l/m N-NO 0,00 h 0 W/m 1,2 km/h (1 Bft)
25.10.2016 20:00 11,6 C 98 % 1021,9 hPa 0,8 l/m NO 0,00 h 0 W/m 5,7 km/h (1 Bft)
25.10.2016 21:00 11,2 C 98 % 1022,5 hPa 0,4 l/m NO 0,00 h 0 W/m 2,9 km/h (1 Bft)
25.10.2016 22:00 10,9 C 98 % 1022,9 hPa 0,2 l/m NO 0,00 h 0 W/m 2,3 km/h (1 Bft)
25.10.2016 23:00 10,8 C 98 % 1023,0 hPa 0,0 l/m NO 0,00 h 0 W/m 3,5 km/h (1 Bft)
26.10.2016 00:00 10,6 C 98 % 1023,2 hPa 0,0 l/m NO 0,00 h 0 W/m 2,5 km/h (1 Bft)
26.10.2016 01:00 10,6 C 98 % 1023,0 hPa 0,0 l/m NO 0,00 h 0 W/m 3,1 km/h (1 Bft)
26.10.2016 02:00 10,5 C 99 % 1023,3 hPa 0,0 l/m NO 0,00 h 0 W/m 3,6 km/h (1 Bft)
26.10.2016 03:00 10,2 C 98 % 1023,6 hPa 0,0 l/m NO 0,00 h 0 W/m 6,1 km/h (2 Bft)
26.10.2016 04:00 9,8 C 98 % 1023,4 hPa 0,2 l/m N 0,00 h 0 W/m 1,1 km/h (0 Bft)
26.10.2016 05:00 9,6 C 98 % 1023,4 hPa 0,0 l/m N 0,00 h 0 W/m 0,0 km/h (0 Bft)
26.10.2016 06:00 9,3 C 98 % 1023,5 hPa 0,0 l/m N 0,00 h 0 W/m 0,0 km/h (0 Bft)
26.10.2016 07:00 9,0 C 98 % 1023,7 hPa 0,0 l/m N 0,00 h 0 W/m 0,0 km/h (0 Bft)
26.10.2016 08:00 8,9 C 98 % 1024,0 hPa 0,0 l/m N 0,00 h 12 W/m 1,1 km/h (0 Bft)
26.10.2016 09:00 9,2 C 99 % 1024,6 hPa 0,0 l/m NO 0,00 h 41 W/m 3,3 km/h (1 Bft)
26.10.2016 10:00 9,6 C 99 % 1025,1 hPa 0,0 l/m NO 0,00 h 72 W/m 6,5 km/h (2 Bft)
26.10.2016 11:00 10,1 C 98 % 1025,1 hPa 0,0 l/m NO 0,00 h 68 W/m 5,5 km/h (1 Bft)
26.10.2016 12:00 10,6 C 97 % 1025,1 hPa 0,0 l/m NO 0,00 h 133 W/m 6,1 km/h (2 Bft)
26.10.2016 13:00 10,9 C 94 % 1025,1 hPa 0,0 l/m NO 0,00 h 78 W/m 6,3 km/h (2 Bft)
26.10.2016 14:00 10,7 C 95 % 1025,0 hPa 0,0 l/m NO 0,00 h 73 W/m 7,2 km/h (2 Bft)
26.10.2016 15:00 10,8 C 92 % 1025,1 hPa 0,0 l/m NO 0,00 h 97 W/m 3,1 km/h (1 Bft)
26.10.2016 16:00 11,1 C 91 % 1025,3 hPa 0,0 l/m NO 0,00 h 78 W/m 3,7 km/h (1 Bft)
26.10.2016 17:00 11,1 C 92 % 1025,5 hPa 0,0 l/m N 0,00 h 29 W/m 1,2 km/h (1 Bft)
26.10.2016 18:00 10,8 C 92 % 1026,1 hPa 0,0 l/m N 0,00 h 5 W/m 0,0 km/h (0 Bft)
26.10.2016 19:00 10,4 C 94 % 1026,6 hPa 0,0 l/m N 0,00 h 0 W/m 0,4 km/h (0 Bft)
26.10.2016 20:00 9,9 C 95 % 1027,0 hPa 0,0 l/m N 0,00 h 0 W/m 0,4 km/h (0 Bft)
26.10.2016 21:00 9,6 C 96 % 1027,5 hPa 0,0 l/m N 0,00 h 0 W/m 0,0 km/h (0 Bft)
26.10.2016 22:00 9,4 C 97 % 1028,0 hPa 0,0 l/m N 0,00 h 0 W/m 0,0 km/h (0 Bft)
26.10.2016 23:00 9,2 C 97 % 1028,0 hPa 0,0 l/m N 0,00 h 0 W/m 0,3 km/h (0 Bft)
27.10.2016 00:00 8,9 C 97 % 1028,5 hPa 0,0 l/m N 0,00 h 0 W/m 0,9 km/h (0 Bft)
27.10.2016 01:00 8,8 C 97 % 1028,7 hPa 0,0 l/m NO 0,00 h 0 W/m 0,3 km/h (0 Bft)
27.10.2016 02:00 8,6 C 97 % 1029,1 hPa 0,0 l/m NO 0,00 h 0 W/m 3,9 km/h (1 Bft)
27.10.2016 03:00 8,3 C 97 % 1029,2 hPa 0,0 l/m NO 0,00 h 0 W/m 2,1 km/h (1 Bft)
27.10.2016 04:00 8,0 C 97 % 1029,3 hPa 0,0 l/m N 0,00 h 0 W/m 0,3 km/h (0 Bft)
27.10.2016 05:00 7,8 C 97 % 1029,4 hPa 0,0 l/m N 0,00 h 0 W/m 0,0 km/h (0 Bft)
27.10.2016 06:00 7,7 C 97 % 1029,8 hPa 0,0 l/m N 0,00 h 0 W/m 0,4 km/h (0 Bft)
27.10.2016 07:00 7,5 C 97 % 1030,2 hPa 0,0 l/m N 0,00 h 0 W/m 0,0 km/h (0 Bft)
27.10.2016 08:00 7,2 C 97 % 1031,0 hPa 0,0 l/m N 0,08 h 24 W/m 0,0 km/h (0 Bft)
27.10.2016 09:00 7,7 C 97 % 1031,7 hPa 0,0 l/m NO 0,58 h 174 W/m 2,3 km/h (1 Bft)
27.10.2016 10:00 8,8 C 90 % 1032,4 hPa 0,0 l/m NO 0,83 h 284 W/m 9,4 km/h (2 Bft)
27.10.2016 11:00 9,2 C 84 % 1032,7 hPa 0,0 l/m N 0,58 h 333 W/m 1,2 km/h (1 Bft)
27.10.2016 12:00 10,6 C 80 % 1032,6 hPa 0,0 l/m N-NO 0,58 h 372 W/m 5,5 km/h (1 Bft)
27.10.2016 13:00 10,4 C 80 % 1032,5 hPa 0,0 l/m N-NO 0,00 h 181 W/m 1,5 km/h (1 Bft)
27.10.2016 14:00 10,8 C 78 % 1032,1 hPa 0,0 l/m N 0,25 h 251 W/m 0,1 km/h (0 Bft)
27.10.2016 15:00 11,5 C 75 % 1031,9 hPa 0,0 l/m N 0,83 h 262 W/m 3,5 km/h (1 Bft)
27.10.2016 16:00 11,4 C 75 % 1031,8 hPa 0,0 l/m N 0,58 h 141 W/m 2,1 km/h (1 Bft)
27.10.2016 17:00 10,3 C 80 % 1032,0 hPa 0,0 l/m N 0,08 h 34 W/m 0,0 km/h (0 Bft)
27.10.2016 18:00 7,5 C 91 % 1032,1 hPa 0,0 l/m N 0,08 h 7 W/m 0,0 km/h (0 Bft)
27.10.2016 19:00 6,3 C 95 % 1032,7 hPa 0,0 l/m N 0,00 h 0 W/m 0,0 km/h (0 Bft)
27.10.2016 20:00 5,7 C 96 % 1033,1 hPa 0,0 l/m N 0,00 h 0 W/m 0,1 km/h (0 Bft)
27.10.2016 21:00 5,0 C 96 % 1033,0 hPa 0,0 l/m N 0,00 h 0 W/m 0,0 km/h (0 Bft)
27.10.2016 22:00 4,4 C 96 % 1033,0 hPa 0,0 l/m N 0,00 h 0 W/m 0,0 km/h (0 Bft)
27.10.2016 23:00 3,9 C 96 % 1032,9 hPa 0,0 l/m N 0,00 h 0 W/m 0,7 km/h (0 Bft)
28.10.2016 00:00 3,3 C 96 % 1032,8 hPa 0,0 l/m N 0,00 h 0 W/m 0,0 km/h (0 Bft)
28.10.2016 01:00 2,9 C 96 % 1032,7 hPa 0,0 l/m N 0,00 h 0 W/m 0,8 km/h (0 Bft)
28.10.2016 02:00 2,7 C 96 % 1032,9 hPa 0,0 l/m N 0,00 h 0 W/m 1,7 km/h (1 Bft)
28.10.2016 03:00 2,2 C 96 % 1032,6 hPa 0,0 l/m N 0,00 h 0 W/m 0,3 km/h (0 Bft)
28.10.2016 04:00 1,6 C 96 % 1032,5 hPa 0,0 l/m N 0,00 h 0 W/m 0,0 km/h (0 Bft)
28.10.2016 05:00 1,5 C 97 % 1032,7 hPa 0,0 l/m N 0,00 h 0 W/m 0,0 km/h (0 Bft)
28.10.2016 06:00 1,6 C 97 % 1033,1 hPa 0,0 l/m N 0,00 h 0 W/m 0,0 km/h (0 Bft)
28.10.2016 07:00 1,8 C 98 % 1033,3 hPa 0,0 l/m N 0,00 h 7 W/m 0,0 km/h (0 Bft)
28.10.2016 08:00 2,1 C 98 % 1033,7 hPa 0,0 l/m N 0,00 h 22 W/m 0,0 km/h (0 Bft)
28.10.2016 09:00 3,0 C 98 % 1034,2 hPa 0,0 l/m N 0,00 h 64 W/m 0,4 km/h (0 Bft)
28.10.2016 10:00 4,7 C 99 % 1034,2 hPa 0,0 l/m N-NW 0,00 h 99 W/m 2,0 km/h (1 Bft)
28.10.2016 11:00 5,9 C 99 % 1034,3 hPa 0,0 l/m W-NW 0,00 h 132 W/m 5,6 km/h (1 Bft)
28.10.2016 12:00 6,7 C 99 % 1034,1 hPa 0,0 l/m SW 0,08 h 206 W/m 9,9 km/h (2 Bft)
28.10.2016 13:00 7,7 C 98 % 1033,7 hPa 0,0 l/m S-SW 0,58 h 279 W/m 10,8 km/h (2 Bft)
28.10.2016 14:00 9,1 C 92 % 1033,8 hPa 0,0 l/m S-SW 0,83 h 303 W/m 7,4 km/h (2 Bft)
28.10.2016 15:00 10,0 C 89 % 1033,6 hPa 0,0 l/m S-SW 1,00 h 276 W/m 9,3 km/h (2 Bft)
28.10.2016 16:00 10,4 C 87 % 1033,6 hPa 0,0 l/m S-SW 0,92 h 161 W/m 6,0 km/h (2 Bft)
28.10.2016 17:00 10,2 C 88 % 1033,9 hPa 0,0 l/m N 0,42 h 48 W/m 1,1 km/h (0 Bft)
28.10.2016 18:00 7,8 C 93 % 1034,1 hPa 0,0 l/m N 0,00 h 6 W/m 0,0 km/h (0 Bft)
28.10.2016 19:00 6,1 C 96 % 1034,0 hPa 0,0 l/m N 0,00 h 0 W/m 0,0 km/h (0 Bft)
28.10.2016 20:00 5,4 C 96 % 1034,4 hPa 0,0 l/m N 0,00 h 0 W/m 0,0 km/h (0 Bft)
28.10.2016 21:00 4,7 C 96 % 1034,5 hPa 0,0 l/m N 0,00 h 0 W/m 0,0 km/h (0 Bft)
28.10.2016 22:00 4,1 C 96 % 1034,3 hPa 0,0 l/m S-SW 0,00 h 0 W/m 0,4 km/h (0 Bft)
28.10.2016 23:00 3,7 C 97 % 1034,3 hPa 0,0 l/m N 0,00 h 0 W/m 0,0 km/h (0 Bft)
29.10.2016 00:00 3,6 C 97 % 1034,1 hPa 0,0 l/m N 0,00 h 0 W/m 0,0 km/h (0 Bft)
29.10.2016 01:00 3,6 C 97 % 1034,1 hPa 0,0 l/m N 0,00 h 0 W/m 0,3 km/h (0 Bft)
29.10.2016 02:00 3,9 C 98 % 1033,8 hPa 0,0 l/m N 0,00 h 0 W/m 0,0 km/h (0 Bft)
29.10.2016 03:00 3,8 C 98 % 1033,8 hPa 0,0 l/m N 0,00 h 0 W/m 0,0 km/h (0 Bft)
29.10.2016 04:00 4,0 C 98 % 1033,7 hPa 0,0 l/m N 0,00 h 0 W/m 0,5 km/h (0 Bft)
29.10.2016 05:00 4,0 C 98 % 1033,5 hPa 0,2 l/m N 0,00 h 0 W/m 0,0 km/h (0 Bft)
29.10.2016 06:00 4,1 C 98 % 1033,6 hPa 0,0 l/m N 0,00 h 0 W/m 0,0 km/h (0 Bft)
29.10.2016 07:00 4,2 C 99 % 1033,5 hPa 0,0 l/m N 0,00 h 0 W/m 0,0 km/h (0 Bft)
29.10.2016 08:00 4,6 C 99 % 1033,6 hPa 0,0 l/m S-SW 0,00 h 19 W/m 1,1 km/h (0 Bft)
29.10.2016 09:00 5,1 C 99 % 1033,7 hPa 0,0 l/m S-SW 0,00 h 69 W/m 1,2 km/h (1 Bft)
29.10.2016 10:00 6,1 C 99 % 1033,8 hPa 0,0 l/m S-SW 0,25 h 149 W/m 1,3 km/h (1 Bft)
29.10.2016 11:00 7,5 C 99 % 1033,7 hPa 0,0 l/m S-SW 0,75 h 258 W/m 1,6 km/h (1 Bft)
29.10.2016 12:00 10,1 C 95 % 1033,4 hPa 0,0 l/m S-SW 0,67 h 314 W/m 1,3 km/h (1 Bft)
29.10.2016 13:00 10,9 C 92 % 1032,7 hPa 0,0 l/m W 0,00 h 157 W/m 6,7 km/h (2 Bft)
29.10.2016 14:00 11,3 C 90 % 1031,9 hPa 0,0 l/m N-NO 0,00 h 126 W/m 7,4 km/h (2 Bft)
29.10.2016 15:00 11,6 C 87 % 1031,2 hPa 0,0 l/m N-NO 0,00 h 107 W/m 7,3 km/h (2 Bft)
29.10.2016 16:00 11,8 C 83 % 1030,9 hPa 0,0 l/m O-NO 0,42 h 130 W/m 4,3 km/h (1 Bft)
29.10.2016 17:00 11,1 C 83 % 1030,8 hPa 0,0 l/m NO 0,08 h 27 W/m 4,7 km/h (1 Bft)
29.10.2016 18:00 9,6 C 88 % 1031,1 hPa 0,0 l/m NO 0,00 h 6 W/m 4,7 km/h (1 Bft)
29.10.2016 19:00 7,7 C 91 % 1031,1 hPa 0,0 l/m N 0,00 h 0 W/m 0,3 km/h (0 Bft)
29.10.2016 20:00 6,4 C 94 % 1031,1 hPa 0,0 l/m N 0,00 h 0 W/m 0,0 km/h (0 Bft)
29.10.2016 21:00 5,7 C 94 % 1031,3 hPa 0,0 l/m N 0,00 h 0 W/m 0,0 km/h (0 Bft)
29.10.2016 22:00 5,0 C 94 % 1031,3 hPa 0,0 l/m N 0,00 h 0 W/m 0,0 km/h (0 Bft)
29.10.2016 23:00 4,3 C 95 % 1031,1 hPa 0,0 l/m N 0,00 h 0 W/m 0,0 km/h (0 Bft)
30.10.2016 00:00 3,8 C 95 % 1030,8 hPa 0,0 l/m N 0,00 h 0 W/m 0,0 km/h (0 Bft)
30.10.2016 01:00 3,4 C 95 % 1030,5 hPa 0,0 l/m N 0,00 h 0 W/m 0,0 km/h (0 Bft)
30.10.2016 02:00 2,5 C 95 % 1030,2 hPa 0,0 l/m NO 0,00 h 0 W/m 1,5 km/h (1 Bft)
30.10.2016 03:00 2,3 C 96 % 1030,0 hPa 0,0 l/m N 0,00 h 0 W/m 1,1 km/h (0 Bft)
30.10.2016 04:00 2,0 C 96 % 1029,7 hPa 0,0 l/m N 0,00 h 0 W/m 0,0 km/h (0 Bft)
30.10.2016 05:00 2,1 C 97 % 1029,6 hPa 0,0 l/m NO 0,00 h 0 W/m 4,5 km/h (1 Bft)
30.10.2016 06:00 2,9 C 98 % 1029,4 hPa 0,0 l/m NO 0,00 h 0 W/m 2,7 km/h (1 Bft)
30.10.2016 07:00 3,4 C 98 % 1029,5 hPa 0,2 l/m NO 0,00 h 19 W/m 4,9 km/h (1 Bft)
30.10.2016 08:00 3,7 C 98 % 1029,8 hPa 0,0 l/m N-NO 0,00 h 77 W/m 7,8 km/h (2 Bft)
30.10.2016 09:00 4,3 C 99 % 1030,0 hPa 0,0 l/m N-NO 0,00 h 113 W/m 5,5 km/h (1 Bft)
30.10.2016 10:00 5,4 C 99 % 1029,7 hPa 0,0 l/m N-NO 0,08 h 195 W/m 3,3 km/h (1 Bft)
30.10.2016 11:00 7,6 C 97 % 1029,1 hPa 0,0 l/m N-NO 0,92 h 405 W/m 8,4 km/h (2 Bft)
30.10.2016 12:00 10,1 C 88 % 1028,6 hPa 0,0 l/m N-NO 1,00 h 432 W/m 12,4 km/h (3 Bft)
30.10.2016 13:00 11,2 C 83 % 1028,0 hPa 0,0 l/m N-NO 1,00 h 379 W/m 10,9 km/h (2 Bft)
30.10.2016 14:00 11,0 C 81 % 1027,8 hPa 0,0 l/m NO 1,00 h 283 W/m 10,9 km/h (2 Bft)
30.10.2016 15:00 10,7 C 80 % 1027,7 hPa 0,0 l/m N-NO 0,58 h 132 W/m 10,9 km/h (2 Bft)
30.10.2016 16:00 9,4 C 86 % 1027,7 hPa 0,0 l/m N-NO 0,08 h 26 W/m 8,2 km/h (2 Bft)
30.10.2016 17:00 7,8 C 92 % 1028,0 hPa 0,0 l/m NO 0,00 h 6 W/m 7,2 km/h (2 Bft)
30.10.2016 18:00 7,1 C 94 % 1028,3 hPa 0,0 l/m N-NO 0,00 h 0 W/m 6,6 km/h (2 Bft)
30.10.2016 19:00 6,2 C 95 % 1028,4 hPa 0,0 l/m N-NO 0,00 h 0 W/m 2,7 km/h (1 Bft)
30.10.2016 20:00 5,9 C 96 % 1028,5 hPa 0,0 l/m N-NO 0,00 h 0 W/m 1,5 km/h (1 Bft)
30.10.2016 21:00 5,3 C 96 % 1028,7 hPa 0,0 l/m N 0,00 h 0 W/m 1,5 km/h (1 Bft)
30.10.2016 22:00 4,8 C 96 % 1028,6 hPa 0,0 l/m N-NO 0,00 h 0 W/m 2,4 km/h (1 Bft)
30.10.2016 23:00 4,6 C 96 % 1028,4 hPa 0,0 l/m N-NO 0,00 h 0 W/m 2,5 km/h (1 Bft)
Min-Datum _ 28.10.16 27.10.16 24.10.16 - - - - 24.10.16
_ Min-Zeit 04:55 15:05 15:10 - - - - 00:10
Minimum _ 1,3 C 74 % 1011,6 hPa - - - - 0,0 km/h (0 Bft)
Max-Datum _ 24.10.16 24.10.16 28.10.16 25.10.16 - 24.10.16 27.10.16 25.10.16
_ Max-Zeit 16:15 09:35 21:00 06:45 - 09:15 12:05 07:45
Maximum _ 17,1 C 100 % 1034,7 hPa 4,8 l/m - 0,08 h 589 W/m 29,0 km/h
SW (5 Bft)
Durchschnitt _ 8,3 C 95 % 1026,3 hPa #11,8 l/m NO #20:25 h 139 W/m 2,9 km/h (1 Bft)